createdAt,value
2023-09-08T00:02:05.624Z,64.01
2023-09-08T00:04:32.290Z,63.98
2023-09-08T00:06:58.899Z,64.46
2023-09-08T00:09:25.555Z,64.69
2023-09-08T00:11:52.094Z,64.68
2023-09-08T00:14:18.878Z,64.75
2023-09-08T00:16:45.537Z,64.91
2023-09-08T00:19:12.988Z,64.73
2023-09-08T00:21:39.613Z,64.88
2023-09-08T00:24:06.457Z,65.77
2023-09-08T00:26:33.651Z,65.90
2023-09-08T00:29:00.238Z,65.97
2023-09-08T00:31:26.793Z,65.86
2023-09-08T00:33:53.434Z,66.21
2023-09-08T00:36:20.171Z,66.26
2023-09-08T00:38:46.728Z,66.33
2023-09-08T00:41:13.284Z,66.40
2023-09-08T00:43:39.823Z,66.47
2023-09-08T00:46:07.908Z,66.75
2023-09-08T00:48:35.623Z,66.48
2023-09-08T00:51:03.255Z,67.53
2023-09-08T00:53:30.221Z,67.50
2023-09-08T00:55:57.534Z,67.41
2023-09-08T00:58:24.117Z,67.25
2023-09-08T01:00:50.704Z,67.72
2023-09-08T01:03:17.439Z,67.97
2023-09-08T01:05:45.559Z,67.98
2023-09-08T01:08:12.166Z,68.04
2023-09-08T01:10:38.783Z,68.53
2023-09-08T01:13:05.312Z,67.97
2023-09-08T01:15:31.917Z,68.05
2023-09-08T01:17:59.708Z,68.15
2023-09-08T01:21:04.524Z,69.10
2023-09-08T01:24:26.052Z,68.35
2023-09-08T01:26:52.684Z,68.17
2023-09-08T01:29:20.409Z,68.44
2023-09-08T01:31:47.897Z,69.17
2023-09-08T01:34:14.720Z,68.51
2023-09-08T01:36:41.316Z,69.04
2023-09-08T01:39:07.892Z,68.86
2023-09-08T01:41:34.517Z,69.33
2023-09-08T01:44:01.989Z,69.31
2023-09-08T01:46:28.545Z,69.18
2023-09-08T01:48:55.206Z,69.08
2023-09-08T01:51:21.816Z,69.64
2023-09-08T01:53:48.336Z,69.28
2023-09-08T01:56:14.871Z,69.60
2023-09-08T01:58:41.409Z,69.27
2023-09-08T02:01:08.168Z,69.42
2023-09-08T02:03:35.556Z,69.63
2023-09-08T02:06:02.130Z,70.03
2023-09-08T02:08:28.658Z,70.18
2023-09-08T02:10:55.201Z,70.54
2023-09-08T02:13:22.960Z,69.98
2023-09-08T02:15:49.777Z,70.73
2023-09-08T02:18:16.444Z,70.41
2023-09-08T02:20:42.989Z,70.48
2023-09-08T02:23:09.666Z,70.50
2023-09-08T02:25:36.228Z,70.65
2023-09-08T02:28:03.049Z,71.06
2023-09-08T02:30:29.738Z,71.09
2023-09-08T02:32:57.284Z,70.44
2023-09-08T02:35:25.073Z,70.30
2023-09-08T02:37:52.820Z,70.62
2023-09-08T02:40:20.392Z,70.54
2023-09-08T02:42:47.445Z,70.58
2023-09-08T02:45:14.198Z,70.82
2023-09-08T02:47:40.848Z,71.07
2023-09-08T02:50:09.190Z,71.19
2023-09-08T02:52:35.762Z,71.50
2023-09-08T02:55:02.457Z,71.94
2023-09-08T02:57:29.013Z,72.15
2023-09-08T02:59:55.614Z,71.75
2023-09-08T03:02:22.529Z,71.66
2023-09-08T03:04:49.233Z,72.01
2023-09-08T03:07:15.924Z,71.76
2023-09-08T03:09:43.809Z,71.97
2023-09-08T03:12:10.390Z,71.93
2023-09-08T03:14:36.978Z,72.26
2023-09-08T03:17:03.729Z,72.52
2023-09-08T03:19:31.701Z,72.69
2023-09-08T03:21:58.244Z,72.72
2023-09-08T03:24:25.986Z,72.77
2023-09-08T03:26:52.558Z,72.41
2023-09-08T03:29:19.161Z,72.81
2023-09-08T03:31:45.841Z,72.75
2023-09-08T03:34:12.617Z,73.24
2023-09-08T03:36:39.425Z,73.67
2023-09-08T03:39:06.164Z,73.14
2023-09-08T03:41:32.651Z,73.51
2023-09-08T03:43:59.943Z,73.51
2023-09-08T03:46:26.614Z,73.52
2023-09-08T03:48:53.572Z,73.43
2023-09-08T03:51:20.382Z,74.30
2023-09-08T03:53:47.031Z,73.64
2023-09-08T03:56:13.604Z,73.84
2023-09-08T03:58:40.558Z,73.84
2023-09-08T04:01:07.152Z,74.34
2023-09-08T04:03:34.153Z,74.40
2023-09-08T04:06:01.077Z,74.06
2023-09-08T04:08:27.790Z,74.45
2023-09-08T04:10:54.408Z,74.46
2023-09-08T04:13:21.548Z,74.92
2023-09-08T04:15:48.204Z,74.80
2023-09-08T04:18:15.215Z,75.25
2023-09-08T04:20:41.824Z,75.28
2023-09-08T04:23:08.414Z,75.09
2023-09-08T04:25:34.918Z,75.09
2023-09-08T04:28:01.498Z,75.05
2023-09-08T04:30:28.267Z,75.95
2023-09-08T04:32:54.927Z,75.66
2023-09-08T04:35:21.445Z,75.39
2023-09-08T04:37:48.011Z,75.82
2023-09-08T04:40:14.535Z,76.03
2023-09-08T04:42:41.267Z,75.90
2023-09-08T04:45:09.041Z,75.45
2023-09-08T04:47:36.957Z,76.12
2023-09-08T04:50:05.553Z,76.09
2023-09-08T04:52:32.250Z,76.11
2023-09-08T04:55:00.208Z,75.95
2023-09-08T04:57:27.256Z,76.03
2023-09-08T04:59:57.772Z,76.60
2023-09-08T05:02:24.773Z,75.94
2023-09-08T05:04:51.733Z,75.53
2023-09-08T05:07:18.359Z,76.12
2023-09-08T05:09:44.848Z,76.24
2023-09-08T05:12:11.722Z,76.02
2023-09-08T05:14:38.531Z,75.74
2023-09-08T05:17:05.245Z,76.15
2023-09-08T05:19:32.241Z,76.26
2023-09-08T05:21:58.838Z,76.40
2023-09-08T05:24:25.874Z,76.52
2023-09-08T05:26:52.503Z,76.16
2023-09-08T05:29:20.388Z,76.27
2023-09-08T05:31:46.978Z,76.41
2023-09-08T05:34:14.428Z,76.36
2023-09-08T05:36:41.497Z,76.65
2023-09-08T05:39:08.729Z,76.82
2023-09-08T05:41:35.338Z,76.63
2023-09-08T05:44:03.339Z,76.64
2023-09-08T05:46:30.218Z,76.83
2023-09-08T05:48:58.124Z,77.28
2023-09-08T05:51:25.356Z,76.74
2023-09-08T05:53:53.807Z,76.97
2023-09-08T05:56:20.928Z,76.94
2023-09-08T05:58:47.682Z,77.04
2023-09-08T06:01:14.387Z,77.14
2023-09-08T06:03:41.062Z,77.29
2023-09-08T06:06:07.803Z,77.19
2023-09-08T06:08:34.657Z,77.10
2023-09-08T06:11:02.098Z,76.98
2023-09-08T06:13:28.881Z,77.66
2023-09-08T06:15:55.540Z,77.45
2023-09-08T06:18:22.085Z,77.13
2023-09-08T06:20:49.392Z,77.31
2023-09-08T06:23:17.067Z,77.47
2023-09-08T06:25:43.607Z,77.57
2023-09-08T06:28:10.462Z,77.00
2023-09-08T06:30:37.797Z,76.81
2023-09-08T06:33:04.587Z,77.14
2023-09-08T06:35:31.261Z,77.38
2023-09-08T06:37:57.824Z,76.79
2023-09-08T06:40:25.712Z,76.38
2023-09-08T06:42:52.423Z,76.52
2023-09-08T06:45:28.807Z,76.35
2023-09-08T06:47:55.513Z,77.06
2023-09-08T06:50:23.064Z,76.63
2023-09-08T06:52:53.040Z,76.56
2023-09-08T06:55:20.000Z,76.90
2023-09-08T06:57:48.952Z,76.87
2023-09-08T07:00:16.107Z,76.93
2023-09-08T07:02:42.863Z,76.32
2023-09-08T07:05:11.131Z,76.18
2023-09-08T07:07:38.500Z,76.45
2023-09-08T07:10:05.607Z,76.58
2023-09-08T07:12:32.336Z,75.82
2023-09-08T07:14:59.253Z,75.48
2023-09-08T07:17:26.384Z,75.70
2023-09-08T07:19:53.749Z,75.36
2023-09-08T07:22:21.466Z,75.26
2023-09-08T07:24:48.156Z,74.75
2023-09-08T07:27:16.925Z,74.55
2023-09-08T07:29:43.626Z,74.42
2023-09-08T07:32:10.478Z,74.98
2023-09-08T07:34:37.100Z,74.55
2023-09-08T07:37:04.060Z,74.22
2023-09-08T07:39:30.663Z,74.60
2023-09-08T07:41:59.088Z,73.91
2023-09-08T07:44:28.697Z,73.77
2023-09-08T07:46:55.644Z,73.52
2023-09-08T07:49:22.298Z,72.96
2023-09-08T07:51:48.845Z,73.18
2023-09-08T07:54:15.657Z,73.04
2023-09-08T07:56:42.234Z,72.36
2023-09-08T07:59:08.927Z,72.05
2023-09-08T08:01:35.562Z,72.15
2023-09-08T08:04:02.234Z,71.99
2023-09-08T08:06:28.779Z,71.44
2023-09-08T08:08:55.380Z,71.18
2023-09-08T08:11:21.975Z,70.64
2023-09-08T08:13:48.671Z,70.18
2023-09-08T08:16:15.228Z,70.20
2023-09-08T08:18:42.010Z,70.57
2023-09-08T08:21:08.734Z,70.30
2023-09-08T08:23:35.443Z,70.55
2023-09-08T08:26:02.999Z,69.71
2023-09-08T08:28:29.532Z,69.07
2023-09-08T08:30:56.107Z,68.80
2023-09-08T08:33:22.877Z,68.67
2023-09-08T08:35:50.615Z,68.29
2023-09-08T08:38:17.187Z,67.54
2023-09-08T08:40:43.732Z,67.26
2023-09-08T08:43:10.614Z,66.56
2023-09-08T08:45:39.106Z,66.14
2023-09-08T08:48:08.432Z,65.91
2023-09-08T08:50:36.924Z,65.85
2023-09-08T08:53:03.658Z,64.61
2023-09-08T08:55:31.763Z,64.48
2023-09-08T08:58:05.082Z,64.62
2023-09-08T09:00:34.707Z,64.41
2023-09-08T09:03:12.099Z,62.34
2023-09-08T09:05:44.639Z,62.18
2023-09-08T09:08:14.304Z,61.69
2023-09-08T09:10:40.811Z,61.00
2023-09-08T09:13:07.341Z,60.53
2023-09-08T09:15:33.993Z,59.92
2023-09-08T09:18:07.783Z,60.40
2023-09-08T09:20:35.322Z,59.94
2023-09-08T09:23:02.091Z,59.28
2023-09-08T09:25:31.298Z,58.02
2023-09-08T09:28:00.245Z,57.95
2023-09-08T09:30:27.720Z,56.41
2023-09-08T09:33:05.307Z,55.48
2023-09-08T09:35:49.267Z,53.50
2023-09-08T09:38:15.806Z,54.13
2023-09-08T09:40:42.465Z,52.49
2023-09-08T09:43:09.570Z,52.58
2023-09-08T09:45:38.002Z,52.45
2023-09-08T09:48:05.729Z,52.49
2023-09-08T09:50:34.169Z,51.03
2023-09-08T09:53:03.127Z,50.34
2023-09-08T09:55:29.876Z,49.50
2023-09-08T09:57:58.237Z,50.32
2023-09-08T10:00:26.820Z,49.74
2023-09-08T10:02:54.982Z,49.61
2023-09-08T10:05:22.069Z,48.67
2023-09-08T10:07:48.865Z,48.17
2023-09-08T10:10:16.749Z,49.01
2023-09-08T10:12:50.190Z,48.79
2023-09-08T10:15:21.600Z,48.39
2023-09-08T10:17:53.762Z,48.21
2023-09-08T10:20:21.334Z,48.18
2023-09-08T10:22:53.882Z,46.50
2023-09-08T10:25:22.306Z,46.59
2023-09-08T10:27:49.581Z,46.60
2023-09-08T10:30:17.535Z,45.28
2023-09-08T10:32:44.507Z,45.05
2023-09-08T10:35:11.631Z,45.35
2023-09-08T10:37:38.145Z,44.39
2023-09-08T10:40:22.385Z,43.80
2023-09-08T10:42:49.698Z,44.41
2023-09-08T10:45:18.976Z,44.97
2023-09-08T10:47:48.592Z,44.93
2023-09-08T10:50:19.425Z,44.84
2023-09-08T10:53:04.613Z,44.68
2023-09-08T10:55:40.321Z,44.96
2023-09-08T10:58:06.807Z,45.43
2023-09-08T11:00:52.504Z,45.87
2023-09-08T11:03:28.480Z,45.69
2023-09-08T11:05:55.256Z,46.48
2023-09-08T11:08:22.452Z,46.49
2023-09-08T11:10:49.941Z,46.32
2023-09-08T11:13:16.454Z,46.76
2023-09-08T11:15:43.176Z,46.46
2023-09-08T11:18:10.144Z,46.84
2023-09-08T11:20:36.796Z,46.77
2023-09-08T11:23:04.487Z,47.18
2023-09-08T11:25:31.085Z,46.23
2023-09-08T11:27:58.219Z,46.80
2023-09-08T11:30:26.206Z,47.38
2023-09-08T11:32:52.851Z,46.56
2023-09-08T11:35:19.741Z,46.12
2023-09-08T11:37:46.226Z,46.37
2023-09-08T11:40:13.684Z,45.94
2023-09-08T11:42:41.689Z,45.97
2023-09-08T11:45:08.750Z,44.86
2023-09-08T11:47:35.283Z,44.46
2023-09-08T11:50:03.488Z,45.23
2023-09-08T11:52:29.998Z,44.81
2023-09-08T11:55:06.312Z,45.30
2023-09-08T11:57:34.562Z,44.63
2023-09-08T12:00:02.574Z,44.89
2023-09-08T12:02:35.172Z,44.92
2023-09-08T12:05:02.549Z,44.90
2023-09-08T12:07:29.460Z,44.40
2023-09-08T12:09:56.102Z,44.68
2023-09-08T12:12:22.695Z,44.15
2023-09-08T12:14:49.158Z,43.75
2023-09-08T12:17:15.743Z,43.53
2023-09-08T12:19:42.269Z,42.90
2023-09-08T12:22:09.020Z,44.19
2023-09-08T12:24:49.712Z,44.12
2023-09-08T12:27:17.577Z,43.71
2023-09-08T12:30:04.619Z,43.41
2023-09-08T12:32:32.855Z,43.36
2023-09-08T12:35:00.547Z,42.39
2023-09-08T12:37:27.341Z,43.03
2023-09-08T12:39:54.282Z,43.78
2023-09-08T12:42:21.056Z,43.80
2023-09-08T12:44:48.733Z,43.42
2023-09-08T12:47:15.389Z,42.83
2023-09-08T12:49:41.923Z,41.81
2023-09-08T12:52:08.640Z,42.31
2023-09-08T12:54:35.149Z,41.70
2023-09-08T12:57:03.775Z,41.73
2023-09-08T12:59:31.872Z,41.64
2023-09-08T13:01:58.359Z,41.12
2023-09-08T13:04:24.944Z,40.72
2023-09-08T13:06:52.013Z,42.06
2023-09-08T13:09:18.668Z,41.34
2023-09-08T13:11:45.191Z,41.25
2023-09-08T13:14:11.750Z,41.71
2023-09-08T13:16:38.322Z,40.93
2023-09-08T13:19:05.217Z,39.88
2023-09-08T13:21:31.761Z,40.92
2023-09-08T13:23:58.283Z,41.08
2023-09-08T13:26:24.854Z,40.91
2023-09-08T13:28:51.434Z,41.15
2023-09-08T13:31:18.072Z,41.27
2023-09-08T13:33:45.008Z,40.27
2023-09-08T13:36:11.507Z,41.39
2023-09-08T13:38:38.692Z,41.17
2023-09-08T13:41:06.272Z,40.95
2023-09-08T13:43:32.897Z,41.87
2023-09-08T13:45:59.352Z,41.25
2023-09-08T13:48:26.311Z,40.65
2023-09-08T13:50:54.306Z,40.64
2023-09-08T13:53:21.906Z,41.46
2023-09-08T13:55:51.282Z,41.12
2023-09-08T13:58:20.592Z,39.95
2023-09-08T14:00:52.254Z,40.51
2023-09-08T14:05:52.840Z,40.61
2023-09-08T14:08:28.850Z,39.78
2023-09-08T14:13:37.093Z,40.98
2023-09-08T14:16:04.176Z,40.22
2023-09-08T14:18:31.008Z,39.07
2023-09-08T14:20:57.623Z,38.56
2023-09-08T14:23:24.156Z,38.72
2023-09-08T14:25:50.764Z,38.25
2023-09-08T14:28:17.385Z,38.70
2023-09-08T14:30:43.981Z,40.06
2023-09-08T14:33:10.642Z,38.68
2023-09-08T14:35:42.818Z,38.53
2023-09-08T14:38:09.487Z,38.75
2023-09-08T14:40:36.141Z,39.04
2023-09-08T14:43:02.737Z,39.16
2023-09-08T14:45:29.261Z,38.46
2023-09-08T14:47:56.379Z,38.89
2023-09-08T14:50:24.220Z,39.82
2023-09-08T14:52:50.823Z,39.87
2023-09-08T14:55:17.379Z,38.51
2023-09-08T14:57:43.959Z,38.76
2023-09-08T15:00:10.969Z,39.56
2023-09-08T15:02:37.582Z,38.75
2023-09-08T15:05:04.346Z,39.92
2023-09-08T15:07:30.855Z,40.42
2023-09-08T15:09:57.344Z,40.84
2023-09-08T15:12:23.924Z,40.36
2023-09-08T15:14:50.444Z,39.94
2023-09-08T15:17:16.983Z,39.60
2023-09-08T15:19:43.684Z,37.38
2023-09-08T15:22:10.207Z,37.73
2023-09-08T15:24:37.496Z,38.42
2023-09-08T15:27:04.419Z,37.25
2023-09-08T15:29:31.168Z,37.50
2023-09-08T15:31:57.893Z,38.82
2023-09-08T15:34:27.119Z,38.86
2023-09-08T15:36:54.115Z,39.04
2023-09-08T15:39:20.718Z,37.98
2023-09-08T15:41:47.424Z,37.17
2023-09-08T15:44:14.010Z,37.16
2023-09-08T15:46:40.826Z,36.92
2023-09-08T15:49:07.451Z,37.12
2023-09-08T15:51:34.121Z,37.14
2023-09-08T15:54:00.642Z,38.32
2023-09-08T15:56:27.178Z,38.17
2023-09-08T15:58:53.659Z,37.15
2023-09-08T16:01:20.417Z,38.55
2023-09-08T16:03:47.125Z,39.27
2023-09-08T16:06:14.037Z,37.78
2023-09-08T16:08:40.666Z,37.68
2023-09-08T16:11:07.773Z,38.90
2023-09-08T16:13:34.451Z,40.81
2023-09-08T16:16:01.373Z,40.47
2023-09-08T16:18:28.022Z,41.34
2023-09-08T16:20:54.610Z,40.01
2023-09-08T16:23:21.170Z,40.48
2023-09-08T16:25:47.973Z,39.72
2023-09-08T16:28:14.584Z,43.45
2023-09-08T16:30:41.172Z,42.32
2023-09-08T16:33:08.033Z,41.32
2023-09-08T16:35:35.394Z,41.02
2023-09-08T16:38:01.890Z,40.75
2023-09-08T16:40:28.403Z,41.17
2023-09-08T16:42:54.907Z,40.92
2023-09-08T16:45:21.511Z,42.21
2023-09-08T16:47:48.073Z,41.81
2023-09-08T16:50:14.678Z,41.06
2023-09-08T16:52:41.238Z,40.96
2023-09-08T16:55:08.007Z,41.32
2023-09-08T16:57:34.498Z,41.98
2023-09-08T17:00:01.195Z,42.45
2023-09-08T17:02:28.478Z,41.74
2023-09-08T17:04:55.140Z,42.96
2023-09-08T17:07:21.751Z,42.39
2023-09-08T17:09:48.364Z,41.74
2023-09-08T17:12:14.931Z,41.80
2023-09-08T17:14:41.442Z,42.01
2023-09-08T17:17:07.957Z,42.35
2023-09-08T17:19:34.436Z,42.37
2023-09-08T17:22:01.093Z,43.14
2023-09-08T17:24:27.751Z,42.30
2023-09-08T17:26:57.948Z,43.08
2023-09-08T17:29:24.569Z,42.94
2023-09-08T17:31:51.068Z,43.64
2023-09-08T17:34:21.790Z,43.92
2023-09-08T17:36:52.827Z,45.42
2023-09-08T17:39:19.340Z,45.26
2023-09-08T17:41:45.827Z,45.79
2023-09-08T17:44:12.387Z,46.36
2023-09-08T17:46:39.439Z,46.74
2023-09-08T17:49:06.309Z,47.00
2023-09-08T17:51:32.812Z,47.66
2023-09-08T17:53:59.342Z,47.51
2023-09-08T17:56:25.904Z,48.20
2023-09-08T17:58:52.468Z,48.15
2023-09-08T18:01:19.081Z,48.87
2023-09-08T18:03:48.846Z,48.48
2023-09-08T18:06:15.920Z,48.33
2023-09-08T18:08:42.444Z,49.14
2023-09-08T18:11:09.001Z,49.94
2023-09-08T18:13:35.755Z,49.97
2023-09-08T18:16:04.585Z,50.10
2023-09-08T18:18:31.938Z,50.79
2023-09-08T18:20:58.498Z,50.88
2023-09-08T18:23:25.019Z,51.49
2023-09-08T18:25:53.396Z,51.50
2023-09-08T18:28:20.086Z,51.94
2023-09-08T18:30:46.626Z,51.56
2023-09-08T18:33:13.179Z,51.68
2023-09-08T18:35:39.760Z,52.27
2023-09-08T18:38:06.560Z,51.96
2023-09-08T18:40:33.531Z,52.36
2023-09-08T18:43:00.516Z,52.98
2023-09-08T18:45:27.118Z,53.10
2023-09-08T18:47:53.679Z,53.73
2023-09-08T18:50:20.230Z,54.02
2023-09-08T18:52:46.756Z,54.20
2023-09-08T18:55:13.235Z,54.88
2023-09-08T18:57:39.734Z,55.32
2023-09-08T19:00:07.006Z,55.09
2023-09-08T19:02:33.861Z,54.96
2023-09-08T19:05:00.610Z,55.10
2023-09-08T19:07:28.381Z,55.55
2023-09-08T19:09:54.900Z,55.70
2023-09-08T19:12:21.485Z,55.77
2023-09-08T19:14:53.302Z,56.20
2023-09-08T19:17:19.842Z,56.15
2023-09-08T19:19:46.415Z,56.63
2023-09-08T19:22:13.267Z,57.00
2023-09-08T19:24:42.725Z,56.85
2023-09-08T19:27:09.258Z,57.25
2023-09-08T19:29:35.745Z,57.72
2023-09-08T19:32:02.459Z,58.23
2023-09-08T19:34:29.079Z,57.53
2023-09-08T19:36:55.585Z,57.86
2023-09-08T19:39:22.498Z,58.17
2023-09-08T19:41:49.125Z,58.47
2023-09-08T19:44:15.612Z,58.97
2023-09-08T19:46:42.246Z,59.34
2023-09-08T19:49:08.783Z,59.66
2023-09-08T19:51:35.390Z,59.05
2023-09-08T19:54:02.092Z,58.49
2023-09-08T19:56:29.545Z,59.56
2023-09-08T19:58:56.001Z,59.75
2023-09-08T20:01:22.813Z,59.23
2023-09-08T20:03:49.344Z,60.46
2023-09-08T20:06:16.584Z,60.47
2023-09-08T20:08:43.192Z,59.96
2023-09-08T20:11:10.109Z,60.39
2023-09-08T20:13:36.984Z,60.54
2023-09-08T20:16:06.106Z,61.64
2023-09-08T20:18:33.238Z,61.69
2023-09-08T20:21:01.074Z,61.29
2023-09-08T20:23:27.606Z,60.95
2023-09-08T20:25:54.146Z,61.18
2023-09-08T20:28:20.689Z,61.04
2023-09-08T20:31:04.972Z,61.88
2023-09-08T20:33:38.341Z,61.61
2023-09-08T20:36:05.824Z,61.82
2023-09-08T20:38:32.447Z,61.97
2023-09-08T20:40:59.141Z,62.18
2023-09-08T20:43:25.703Z,62.30
2023-09-08T20:45:55.804Z,62.55
2023-09-08T20:48:23.167Z,62.57
2023-09-08T20:50:59.210Z,62.82
2023-09-08T20:53:25.718Z,63.20
2023-09-08T20:55:52.245Z,63.79
2023-09-08T20:58:18.854Z,64.06
2023-09-08T21:00:45.435Z,63.52
2023-09-08T21:03:12.371Z,64.08
2023-09-08T21:05:38.935Z,64.37
2023-09-08T21:08:05.966Z,64.31
2023-09-08T21:10:33.201Z,64.80
2023-09-08T21:12:59.775Z,63.93
2023-09-08T21:15:26.370Z,63.55
2023-09-08T21:17:53.068Z,64.18
2023-09-08T21:20:19.712Z,64.11
2023-09-08T21:22:46.292Z,64.42
2023-09-08T21:25:12.810Z,64.63
2023-09-08T21:27:39.292Z,64.94
2023-09-08T21:30:06.661Z,64.55
2023-09-08T21:32:33.304Z,65.00
2023-09-08T21:34:59.897Z,64.63
2023-09-08T21:37:26.490Z,65.03
2023-09-08T21:39:52.994Z,65.05
2023-09-08T21:42:19.601Z,65.36
2023-09-08T21:44:46.384Z,65.01
2023-09-08T21:47:12.951Z,65.20
2023-09-08T21:49:39.523Z,65.42
2023-09-08T21:52:06.381Z,65.93
2023-09-08T21:54:32.920Z,65.21
2023-09-08T21:56:59.458Z,65.23
2023-09-08T21:59:26.208Z,65.38
2023-09-08T22:01:52.770Z,65.58
2023-09-08T22:04:19.445Z,65.88
2023-09-08T22:06:46.244Z,66.67
2023-09-08T22:09:12.737Z,66.92
2023-09-08T22:11:39.267Z,66.34
2023-09-08T22:14:05.752Z,66.91
2023-09-08T22:16:32.358Z,67.04
2023-09-08T22:18:58.887Z,66.73
2023-09-08T22:21:25.458Z,67.71
2023-09-08T22:23:52.191Z,67.27
2023-09-08T22:26:20.063Z,67.28
2023-09-08T22:28:50.442Z,67.67
2023-09-08T22:31:17.226Z,67.11
2023-09-08T22:33:44.200Z,66.79
2023-09-08T22:36:11.118Z,67.18
2023-09-08T22:38:37.750Z,67.03
2023-09-08T22:41:04.305Z,67.38
2023-09-08T22:43:30.788Z,67.73
2023-09-08T22:45:57.396Z,67.83
2023-09-08T22:48:23.984Z,67.55
2023-09-08T22:50:50.985Z,67.89
2023-09-08T22:53:18.446Z,67.69
2023-09-08T22:55:45.382Z,67.56
2023-09-08T22:58:16.130Z,67.44
2023-09-08T23:00:42.811Z,67.60
2023-09-08T23:03:09.471Z,67.57
2023-09-08T23:05:36.151Z,67.40
2023-09-08T23:08:02.745Z,66.86
2023-09-08T23:10:29.321Z,66.01
2023-09-08T23:12:56.084Z,66.06
2023-09-08T23:15:23.099Z,66.35
2023-09-08T23:17:49.741Z,66.29
2023-09-08T23:20:16.512Z,65.75
2023-09-08T23:22:44.377Z,65.77
2023-09-08T23:25:11.098Z,65.73
2023-09-08T23:27:37.833Z,65.13
2023-09-08T23:30:05.125Z,65.50
2023-09-08T23:32:31.676Z,65.48
2023-09-08T23:34:59.866Z,65.47
2023-09-08T23:37:26.433Z,65.60
2023-09-08T23:39:53.079Z,65.24
2023-09-08T23:42:19.626Z,65.02
2023-09-08T23:44:46.186Z,65.30
2023-09-08T23:47:12.748Z,65.17
2023-09-08T23:49:39.304Z,65.35
2023-09-08T23:52:05.847Z,65.32
2023-09-08T23:54:32.381Z,65.13
2023-09-08T23:56:59.097Z,64.93
2023-09-08T23:59:25.876Z,64.72
